sensor_id;sensor_type;location;lat;lon;timestamp;P1;durP1;ratioP1;P2;durP2;ratioP2
40555;SDS011;26250;45.422;11.100;2022-08-19T00:02:01;9.80;;;3.83;;
40555;SDS011;26250;45.422;11.100;2022-08-19T00:04:30;8.95;;;3.28;;
40555;SDS011;26250;45.422;11.100;2022-08-19T00:07:02;11.73;;;5.50;;
40555;SDS011;26250;45.422;11.100;2022-08-19T00:09:31;10.02;;;5.28;;
40555;SDS011;26250;45.422;11.100;2022-08-19T00:11:58;6.00;;;3.80;;
40555;SDS011;26250;45.422;11.100;2022-08-19T00:14:26;6.70;;;5.35;;
40555;SDS011;26250;45.422;11.100;2022-08-19T00:16:54;10.00;;;5.35;;
40555;SDS011;26250;45.422;11.100;2022-08-19T00:19:21;11.70;;;4.05;;
40555;SDS011;26250;45.422;11.100;2022-08-19T00:21:49;5.43;;;4.18;;
40555;SDS011;26250;45.422;11.100;2022-08-19T00:24:16;14.55;;;3.88;;
40555;SDS011;26250;45.422;11.100;2022-08-19T00:26:43;8.43;;;3.15;;
40555;SDS011;26250;45.422;11.100;2022-08-19T00:29:12;9.57;;;2.58;;
40555;SDS011;26250;45.422;11.100;2022-08-19T00:31:40;8.38;;;2.78;;
40555;SDS011;26250;45.422;11.100;2022-08-19T00:34:09;5.32;;;2.22;;
40555;SDS011;26250;45.422;11.100;2022-08-19T00:36:38;8.23;;;2.35;;
40555;SDS011;26250;45.422;11.100;2022-08-19T00:39:08;4.95;;;2.17;;
40555;SDS011;26250;45.422;11.100;2022-08-19T00:41:35;8.43;;;2.60;;
40555;SDS011;26250;45.422;11.100;2022-08-19T00:44:04;6.75;;;2.75;;
40555;SDS011;26250;45.422;11.100;2022-08-19T00:46:34;4.82;;;2.88;;
40555;SDS011;26250;45.422;11.100;2022-08-19T00:49:24;8.35;;;3.00;;
40555;SDS011;26250;45.422;11.100;2022-08-19T00:51:57;10.52;;;2.75;;
40555;SDS011;26250;45.422;11.100;2022-08-19T00:56:57;11.10;;;2.97;;
40555;SDS011;26250;45.422;11.100;2022-08-19T00:59:25;5.28;;;2.70;;
40555;SDS011;26250;45.422;11.100;2022-08-19T01:02:15;7.72;;;3.20;;
40555;SDS011;26250;45.422;11.100;2022-08-19T01:04:43;6.78;;;4.32;;
40555;SDS011;26250;45.422;11.100;2022-08-19T01:07:09;13.93;;;3.95;;
40555;SDS011;26250;45.422;11.100;2022-08-19T01:09:45;8.05;;;3.90;;
40555;SDS011;26250;45.422;11.100;2022-08-19T01:12:12;5.80;;;3.67;;
40555;SDS011;26250;45.422;11.100;2022-08-19T01:14:40;8.27;;;3.95;;
40555;SDS011;26250;45.422;11.100;2022-08-19T01:17:08;6.18;;;4.10;;
40555;SDS011;26250;45.422;11.100;2022-08-19T01:19:39;13.13;;;3.45;;
40555;SDS011;26250;45.422;11.100;2022-08-19T01:25:06;5.85;;;2.95;;
40555;SDS011;26250;45.422;11.100;2022-08-19T01:27:41;12.65;;;3.50;;
40555;SDS011;26250;45.422;11.100;2022-08-19T01:30:15;5.78;;;3.42;;
40555;SDS011;26250;45.422;11.100;2022-08-19T01:32:45;10.98;;;4.15;;
40555;SDS011;26250;45.422;11.100;2022-08-19T01:35:12;5.95;;;3.33;;
40555;SDS011;26250;45.422;11.100;2022-08-19T01:40:16;8.90;;;3.78;;
40555;SDS011;26250;45.422;11.100;2022-08-19T01:42:46;11.10;;;3.50;;
40555;SDS011;26250;45.422;11.100;2022-08-19T01:45:15;10.93;;;3.75;;
40555;SDS011;26250;45.422;11.100;2022-08-19T01:47:44;12.48;;;4.20;;
40555;SDS011;26250;45.422;11.100;2022-08-19T01:50:26;11.07;;;4.10;;
40555;SDS011;26250;45.422;11.100;2022-08-19T01:52:54;6.28;;;3.50;;
40555;SDS011;26250;45.422;11.100;2022-08-19T01:55:34;5.57;;;3.88;;
40555;SDS011;26250;45.422;11.100;2022-08-19T01:58:07;13.10;;;3.75;;
40555;SDS011;26250;45.422;11.100;2022-08-19T02:00:40;10.13;;;3.83;;
40555;SDS011;26250;45.422;11.100;2022-08-19T02:03:08;9.77;;;4.45;;
40555;SDS011;26250;45.422;11.100;2022-08-19T02:05:36;8.52;;;4.18;;
40555;SDS011;26250;45.422;11.100;2022-08-19T02:08:03;18.80;;;5.47;;
40555;SDS011;26250;45.422;11.100;2022-08-19T02:10:31;9.63;;;4.70;;
40555;SDS011;26250;45.422;11.100;2022-08-19T02:12:58;6.38;;;4.05;;
40555;SDS011;26250;45.422;11.100;2022-08-19T02:15:25;9.73;;;5.07;;
40555;SDS011;26250;45.422;11.100;2022-08-19T02:17:52;7.18;;;4.45;;
40555;SDS011;26250;45.422;11.100;2022-08-19T02:20:19;7.68;;;4.53;;
40555;SDS011;26250;45.422;11.100;2022-08-19T02:22:46;10.50;;;4.68;;
40555;SDS011;26250;45.422;11.100;2022-08-19T02:25:13;8.95;;;4.93;;
40555;SDS011;26250;45.422;11.100;2022-08-19T02:27:41;7.55;;;4.55;;
40555;SDS011;26250;45.422;11.100;2022-08-19T02:30:10;10.35;;;5.10;;
40555;SDS011;26250;45.422;11.100;2022-08-19T02:32:39;16.27;;;4.60;;
40555;SDS011;26250;45.422;11.100;2022-08-19T02:35:19;7.10;;;5.00;;
40555;SDS011;26250;45.422;11.100;2022-08-19T02:37:47;10.43;;;5.18;;
40555;SDS011;26250;45.422;11.100;2022-08-19T02:40:33;12.35;;;5.32;;
40555;SDS011;26250;45.422;11.100;2022-08-19T02:43:04;9.07;;;4.75;;
40555;SDS011;26250;45.422;11.100;2022-08-19T02:45:34;9.60;;;5.28;;
40555;SDS011;26250;45.422;11.100;2022-08-19T02:48:06;11.10;;;3.75;;
40555;SDS011;26250;45.422;11.100;2022-08-19T02:50:47;6.40;;;3.45;;
40555;SDS011;26250;45.422;11.100;2022-08-19T02:53:22;6.50;;;3.28;;
40555;SDS011;26250;45.422;11.100;2022-08-19T02:55:51;6.50;;;3.40;;
40555;SDS011;26250;45.422;11.100;2022-08-19T02:58:19;6.30;;;3.53;;
40555;SDS011;26250;45.422;11.100;2022-08-19T03:00:47;12.15;;;3.35;;
40555;SDS011;26250;45.422;11.100;2022-08-19T03:03:16;8.82;;;3.85;;
40555;SDS011;26250;45.422;11.100;2022-08-19T03:05:45;5.97;;;3.10;;
40555;SDS011;26250;45.422;11.100;2022-08-19T03:08:22;9.32;;;3.88;;
40555;SDS011;26250;45.422;11.100;2022-08-19T03:10:50;14.40;;;3.72;;
40555;SDS011;26250;45.422;11.100;2022-08-19T03:13:19;4.80;;;3.15;;
40555;SDS011;26250;45.422;11.100;2022-08-19T03:15:47;10.27;;;3.17;;
40555;SDS011;26250;45.422;11.100;2022-08-19T03:18:14;6.30;;;3.35;;
40555;SDS011;26250;45.422;11.100;2022-08-19T03:20:47;13.95;;;3.38;;
40555;SDS011;26250;45.422;11.100;2022-08-19T03:23:16;10.63;;;3.85;;
40555;SDS011;26250;45.422;11.100;2022-08-19T03:25:44;7.35;;;3.10;;
40555;SDS011;26250;45.422;11.100;2022-08-19T03:28:28;6.85;;;3.33;;
40555;SDS011;26250;45.422;11.100;2022-08-19T03:31:00;5.82;;;2.88;;
40555;SDS011;26250;45.422;11.100;2022-08-19T03:33:29;11.05;;;4.25;;
40555;SDS011;26250;45.422;11.100;2022-08-19T03:36:06;8.68;;;3.58;;
40555;SDS011;26250;45.422;11.100;2022-08-19T03:38:43;12.40;;;3.60;;
40555;SDS011;26250;45.422;11.100;2022-08-19T03:41:23;9.13;;;3.30;;
40555;SDS011;26250;45.422;11.100;2022-08-19T03:44:10;12.45;;;3.30;;
40555;SDS011;26250;45.422;11.100;2022-08-19T03:46:43;4.35;;;2.63;;
40555;SDS011;26250;45.422;11.100;2022-08-19T03:49:11;8.20;;;2.97;;
40555;SDS011;26250;45.422;11.100;2022-08-19T03:51:40;12.48;;;2.85;;
40555;SDS011;26250;45.422;11.100;2022-08-19T03:54:08;6.95;;;2.67;;
40555;SDS011;26250;45.422;11.100;2022-08-19T03:56:38;7.13;;;2.88;;
40555;SDS011;26250;45.422;11.100;2022-08-19T03:59:08;10.32;;;3.50;;
40555;SDS011;26250;45.422;11.100;2022-08-19T04:01:37;6.38;;;3.53;;
40555;SDS011;26250;45.422;11.100;2022-08-19T04:04:04;7.10;;;4.40;;
40555;SDS011;26250;45.422;11.100;2022-08-19T04:06:33;5.80;;;3.63;;
40555;SDS011;26250;45.422;11.100;2022-08-19T04:09:05;11.57;;;4.20;;
40555;SDS011;26250;45.422;11.100;2022-08-19T04:11:39;8.60;;;4.10;;
40555;SDS011;26250;45.422;11.100;2022-08-19T04:14:20;9.05;;;3.80;;
40555;SDS011;26250;45.422;11.100;2022-08-19T04:16:50;10.30;;;3.17;;
40555;SDS011;26250;45.422;11.100;2022-08-19T04:19:18;8.43;;;3.42;;
40555;SDS011;26250;45.422;11.100;2022-08-19T04:21:46;14.60;;;4.20;;
40555;SDS011;26250;45.422;11.100;2022-08-19T04:24:16;5.80;;;2.47;;
40555;SDS011;26250;45.422;11.100;2022-08-19T04:26:45;7.30;;;3.63;;
40555;SDS011;26250;45.422;11.100;2022-08-19T04:29:14;10.20;;;3.17;;
40555;SDS011;26250;45.422;11.100;2022-08-19T04:31:48;11.40;;;3.53;;
40555;SDS011;26250;45.422;11.100;2022-08-19T04:34:17;5.85;;;3.50;;
40555;SDS011;26250;45.422;11.100;2022-08-19T04:36:48;8.73;;;3.15;;
40555;SDS011;26250;45.422;11.100;2022-08-19T04:39:21;8.25;;;3.28;;
40555;SDS011;26250;45.422;11.100;2022-08-19T04:42:14;7.18;;;3.35;;
40555;SDS011;26250;45.422;11.100;2022-08-19T04:45:00;14.20;;;4.10;;
40555;SDS011;26250;45.422;11.100;2022-08-19T04:47:30;13.82;;;3.97;;
40555;SDS011;26250;45.422;11.100;2022-08-19T04:50:16;5.93;;;2.88;;
40555;SDS011;26250;45.422;11.100;2022-08-19T04:52:44;15.10;;;3.10;;
40555;SDS011;26250;45.422;11.100;2022-08-19T04:55:12;6.72;;;3.83;;
40555;SDS011;26250;45.422;11.100;2022-08-19T04:57:40;8.52;;;3.53;;
40555;SDS011;26250;45.422;11.100;2022-08-19T05:00:08;16.30;;;3.55;;
40555;SDS011;26250;45.422;11.100;2022-08-19T05:02:36;9.85;;;3.33;;
40555;SDS011;26250;45.422;11.100;2022-08-19T05:05:03;7.97;;;3.45;;
40555;SDS011;26250;45.422;11.100;2022-08-19T05:07:32;11.27;;;3.42;;
40555;SDS011;26250;45.422;11.100;2022-08-19T05:10:00;3.97;;;2.80;;
40555;SDS011;26250;45.422;11.100;2022-08-19T05:12:27;9.55;;;3.15;;
40555;SDS011;26250;45.422;11.100;2022-08-19T05:14:55;6.35;;;2.92;;
40555;SDS011;26250;45.422;11.100;2022-08-19T05:17:24;7.93;;;3.75;;
40555;SDS011;26250;45.422;11.100;2022-08-19T05:19:56;7.05;;;3.53;;
40555;SDS011;26250;45.422;11.100;2022-08-19T05:22:43;8.07;;;4.35;;
40555;SDS011;26250;45.422;11.100;2022-08-19T05:25:12;9.88;;;3.85;;
40555;SDS011;26250;45.422;11.100;2022-08-19T05:27:41;15.65;;;4.13;;
40555;SDS011;26250;45.422;11.100;2022-08-19T05:30:08;6.78;;;3.45;;
40555;SDS011;26250;45.422;11.100;2022-08-19T05:32:37;9.38;;;3.50;;
40555;SDS011;26250;45.422;11.100;2022-08-19T05:35:04;5.82;;;3.38;;
40555;SDS011;26250;45.422;11.100;2022-08-19T05:37:33;9.85;;;3.83;;
40555;SDS011;26250;45.422;11.100;2022-08-19T05:40:00;5.53;;;2.85;;
40555;SDS011;26250;45.422;11.100;2022-08-19T05:42:27;7.68;;;3.13;;
40555;SDS011;26250;45.422;11.100;2022-08-19T05:44:54;7.93;;;3.60;;
40555;SDS011;26250;45.422;11.100;2022-08-19T05:47:22;13.65;;;3.47;;
40555;SDS011;26250;45.422;11.100;2022-08-19T05:49:49;9.00;;;3.60;;
40555;SDS011;26250;45.422;11.100;2022-08-19T05:52:17;8.98;;;3.70;;
40555;SDS011;26250;45.422;11.100;2022-08-19T05:54:51;8.10;;;3.20;;
40555;SDS011;26250;45.422;11.100;2022-08-19T05:57:21;9.88;;;3.97;;
40555;SDS011;26250;45.422;11.100;2022-08-19T05:59:49;8.30;;;3.42;;
40555;SDS011;26250;45.422;11.100;2022-08-19T06:02:24;4.93;;;3.00;;
40555;SDS011;26250;45.422;11.100;2022-08-19T06:04:55;7.22;;;3.33;;
40555;SDS011;26250;45.422;11.100;2022-08-19T06:07:22;8.57;;;3.63;;
40555;SDS011;26250;45.422;11.100;2022-08-19T06:09:49;5.53;;;3.28;;
40555;SDS011;26250;45.422;11.100;2022-08-19T06:12:30;15.02;;;5.18;;
40555;SDS011;26250;45.422;11.100;2022-08-19T06:14:59;7.30;;;3.50;;
40555;SDS011;26250;45.422;11.100;2022-08-19T06:17:28;11.95;;;4.28;;
40555;SDS011;26250;45.422;11.100;2022-08-19T06:19:57;9.52;;;3.95;;
40555;SDS011;26250;45.422;11.100;2022-08-19T06:22:25;14.27;;;4.40;;
40555;SDS011;26250;45.422;11.100;2022-08-19T06:24:53;12.85;;;3.90;;
40555;SDS011;26250;45.422;11.100;2022-08-19T06:27:21;7.28;;;3.33;;
40555;SDS011;26250;45.422;11.100;2022-08-19T06:29:48;12.10;;;4.20;;
40555;SDS011;26250;45.422;11.100;2022-08-19T06:32:16;12.15;;;4.75;;
40555;SDS011;26250;45.422;11.100;2022-08-19T06:34:44;11.30;;;3.63;;
40555;SDS011;26250;45.422;11.100;2022-08-19T06:37:11;7.10;;;4.20;;
40555;SDS011;26250;45.422;11.100;2022-08-19T06:39:39;9.88;;;5.10;;
40555;SDS011;26250;45.422;11.100;2022-08-19T06:42:09;15.27;;;4.47;;
40555;SDS011;26250;45.422;11.100;2022-08-19T06:44:40;15.05;;;5.10;;
40555;SDS011;26250;45.422;11.100;2022-08-19T06:47:18;9.23;;;4.75;;
40555;SDS011;26250;45.422;11.100;2022-08-19T06:49:52;13.00;;;5.85;;
40555;SDS011;26250;45.422;11.100;2022-08-19T06:52:32;11.30;;;3.58;;
40555;SDS011;26250;45.422;11.100;2022-08-19T06:55:03;12.20;;;4.40;;
40555;SDS011;26250;45.422;11.100;2022-08-19T06:57:32;15.32;;;4.80;;
40555;SDS011;26250;45.422;11.100;2022-08-19T07:00:00;16.33;;;5.40;;
40555;SDS011;26250;45.422;11.100;2022-08-19T07:02:27;9.48;;;4.78;;
40555;SDS011;26250;45.422;11.100;2022-08-19T07:04:54;16.42;;;5.07;;
40555;SDS011;26250;45.422;11.100;2022-08-19T07:07:24;7.68;;;4.30;;
40555;SDS011;26250;45.422;11.100;2022-08-19T07:09:51;14.15;;;5.43;;
40555;SDS011;26250;45.422;11.100;2022-08-19T07:12:28;14.05;;;5.20;;
40555;SDS011;26250;45.422;11.100;2022-08-19T07:14:56;15.63;;;7.35;;
40555;SDS011;26250;45.422;11.100;2022-08-19T07:17:24;12.18;;;5.82;;
40555;SDS011;26250;45.422;11.100;2022-08-19T07:19:52;12.27;;;5.95;;
40555;SDS011;26250;45.422;11.100;2022-08-19T07:22:20;11.43;;;5.60;;
40555;SDS011;26250;45.422;11.100;2022-08-19T07:24:50;13.63;;;6.07;;
40555;SDS011;26250;45.422;11.100;2022-08-19T07:27:18;13.07;;;5.35;;
40555;SDS011;26250;45.422;11.100;2022-08-19T07:29:51;14.95;;;6.15;;
40555;SDS011;26250;45.422;11.100;2022-08-19T07:32:22;19.60;;;6.32;;
40555;SDS011;26250;45.422;11.100;2022-08-19T07:34:53;27.08;;;7.13;;
40555;SDS011;26250;45.422;11.100;2022-08-19T07:37:22;11.27;;;6.60;;
40555;SDS011;26250;45.422;11.100;2022-08-19T07:39:58;12.15;;;5.78;;
40555;SDS011;26250;45.422;11.100;2022-08-19T07:42:26;15.27;;;6.55;;
40555;SDS011;26250;45.422;11.100;2022-08-19T07:44:56;20.45;;;7.20;;
40555;SDS011;26250;45.422;11.100;2022-08-19T07:47:24;17.17;;;6.75;;
40555;SDS011;26250;45.422;11.100;2022-08-19T07:50:13;22.60;;;7.93;;
40555;SDS011;26250;45.422;11.100;2022-08-19T07:52:41;19.95;;;7.45;;
40555;SDS011;26250;45.422;11.100;2022-08-19T07:55:14;13.43;;;5.97;;
40555;SDS011;26250;45.422;11.100;2022-08-19T07:58:02;11.27;;;6.75;;
40555;SDS011;26250;45.422;11.100;2022-08-19T08:00:30;10.73;;;7.05;;
40555;SDS011;26250;45.422;11.100;2022-08-19T08:02:57;14.85;;;8.15;;
40555;SDS011;26250;45.422;11.100;2022-08-19T08:05:24;17.58;;;8.25;;
40555;SDS011;26250;45.422;11.100;2022-08-19T08:08:11;24.15;;;10.40;;
40555;SDS011;26250;45.422;11.100;2022-08-19T08:10:57;19.88;;;10.23;;
40555;SDS011;26250;45.422;11.100;2022-08-19T08:13:25;22.80;;;11.77;;
40555;SDS011;26250;45.422;11.100;2022-08-19T08:15:53;15.02;;;11.00;;
40555;SDS011;26250;45.422;11.100;2022-08-19T08:18:22;16.75;;;10.48;;
40555;SDS011;26250;45.422;11.100;2022-08-19T08:20:53;15.25;;;10.43;;
40555;SDS011;26250;45.422;11.100;2022-08-19T08:23:22;12.75;;;9.75;;
40555;SDS011;26250;45.422;11.100;2022-08-19T08:25:52;12.15;;;7.70;;
40555;SDS011;26250;45.422;11.100;2022-08-19T08:28:21;18.33;;;7.18;;
40555;SDS011;26250;45.422;11.100;2022-08-19T08:30:49;22.50;;;7.65;;
40555;SDS011;26250;45.422;11.100;2022-08-19T08:33:20;10.18;;;6.25;;
40555;SDS011;26250;45.422;11.100;2022-08-19T08:38:29;14.82;;;7.43;;
40555;SDS011;26250;45.422;11.100;2022-08-19T08:41:07;14.63;;;8.38;;
40555;SDS011;26250;45.422;11.100;2022-08-19T08:43:56;23.52;;;8.55;;
40555;SDS011;26250;45.422;11.100;2022-08-19T08:49:00;23.60;;;8.55;;
40555;SDS011;26250;45.422;11.100;2022-08-19T08:54:33;16.83;;;10.57;;
40555;SDS011;26250;45.422;11.100;2022-08-19T08:57:24;16.98;;;10.77;;
40555;SDS011;26250;45.422;11.100;2022-08-19T08:59:53;17.00;;;9.80;;
40555;SDS011;26250;45.422;11.100;2022-08-19T09:02:23;14.10;;;9.18;;
40555;SDS011;26250;45.422;11.100;2022-08-19T09:04:50;10.88;;;8.85;;
40555;SDS011;26250;45.422;11.100;2022-08-19T09:12:47;11.25;;;6.60;;
40555;SDS011;26250;45.422;11.100;2022-08-19T09:15:36;9.68;;;6.40;;
40555;SDS011;26250;45.422;11.100;2022-08-19T09:18:21;8.25;;;5.25;;
40555;SDS011;26250;45.422;11.100;2022-08-19T09:20:48;10.30;;;6.60;;
40555;SDS011;26250;45.422;11.100;2022-08-19T09:23:15;8.35;;;5.75;;
40555;SDS011;26250;45.422;11.100;2022-08-19T09:25:42;10.85;;;7.10;;
40555;SDS011;26250;45.422;11.100;2022-08-19T09:28:09;9.73;;;6.20;;
40555;SDS011;26250;45.422;11.100;2022-08-19T09:30:47;11.88;;;7.13;;
40555;SDS011;26250;45.422;11.100;2022-08-19T09:33:14;19.33;;;6.35;;
40555;SDS011;26250;45.422;11.100;2022-08-19T09:35:42;14.68;;;13.07;;
40555;SDS011;26250;45.422;11.100;2022-08-19T09:38:19;12.48;;;10.00;;
40555;SDS011;26250;45.422;11.100;2022-08-19T09:40:47;13.98;;;9.18;;
40555;SDS011;26250;45.422;11.100;2022-08-19T09:43:16;9.70;;;8.35;;
40555;SDS011;26250;45.422;11.100;2022-08-19T09:45:59;10.25;;;8.68;;
40555;SDS011;26250;45.422;11.100;2022-08-19T09:48:27;18.10;;;9.52;;
40555;SDS011;26250;45.422;11.100;2022-08-19T09:50:54;9.77;;;6.80;;
40555;SDS011;26250;45.422;11.100;2022-08-19T09:53:21;7.63;;;5.30;;
40555;SDS011;26250;45.422;11.100;2022-08-19T09:55:50;6.72;;;5.13;;
40555;SDS011;26250;45.422;11.100;2022-08-19T09:58:18;11.80;;;5.80;;
40555;SDS011;26250;45.422;11.100;2022-08-19T10:00:51;6.43;;;4.85;;
40555;SDS011;26250;45.422;11.100;2022-08-19T10:03:20;6.72;;;4.32;;
40555;SDS011;26250;45.422;11.100;2022-08-19T10:05:50;6.78;;;4.20;;
40555;SDS011;26250;45.422;11.100;2022-08-19T10:08:24;5.40;;;3.95;;
40555;SDS011;26250;45.422;11.100;2022-08-19T10:10:54;6.85;;;3.95;;
40555;SDS011;26250;45.422;11.100;2022-08-19T10:13:25;6.15;;;4.72;;
40555;SDS011;26250;45.422;11.100;2022-08-19T10:15:54;5.80;;;4.35;;
40555;SDS011;26250;45.422;11.100;2022-08-19T10:18:23;10.30;;;4.40;;
40555;SDS011;26250;45.422;11.100;2022-08-19T10:20:51;8.10;;;3.67;;
40555;SDS011;26250;45.422;11.100;2022-08-19T10:23:28;6.55;;;3.97;;
40555;SDS011;26250;45.422;11.100;2022-08-19T10:26:00;3.97;;;3.45;;
40555;SDS011;26250;45.422;11.100;2022-08-19T10:28:27;10.02;;;4.28;;
40555;SDS011;26250;45.422;11.100;2022-08-19T10:30:55;5.05;;;4.30;;
40555;SDS011;26250;45.422;11.100;2022-08-19T10:33:22;7.22;;;3.83;;
40555;SDS011;26250;45.422;11.100;2022-08-19T10:36:15;6.43;;;3.33;;
40555;SDS011;26250;45.422;11.100;2022-08-19T10:38:49;8.10;;;3.10;;
40555;SDS011;26250;45.422;11.100;2022-08-19T10:41:23;5.45;;;3.40;;
40555;SDS011;26250;45.422;11.100;2022-08-19T10:44:04;4.95;;;4.05;;
40555;SDS011;26250;45.422;11.100;2022-08-19T10:46:33;6.07;;;4.28;;
40555;SDS011;26250;45.422;11.100;2022-08-19T10:49:03;4.93;;;3.53;;
40555;SDS011;26250;45.422;11.100;2022-08-19T10:51:31;8.20;;;4.25;;
40555;SDS011;26250;45.422;11.100;2022-08-19T10:54:17;5.10;;;3.97;;
40555;SDS011;26250;45.422;11.100;2022-08-19T10:56:59;5.50;;;4.07;;
40555;SDS011;26250;45.422;11.100;2022-08-19T10:59:27;9.00;;;4.57;;
40555;SDS011;26250;45.422;11.100;2022-08-19T11:02:01;7.47;;;4.25;;
40555;SDS011;26250;45.422;11.100;2022-08-19T11:04:30;8.40;;;4.47;;
40555;SDS011;26250;45.422;11.100;2022-08-19T11:06:58;7.30;;;4.65;;
40555;SDS011;26250;45.422;11.100;2022-08-19T11:09:25;5.32;;;4.82;;
40555;SDS011;26250;45.422;11.100;2022-08-19T11:11:59;8.38;;;4.88;;
40555;SDS011;26250;45.422;11.100;2022-08-19T11:14:30;4.72;;;4.20;;
40555;SDS011;26250;45.422;11.100;2022-08-19T11:16:59;6.18;;;4.20;;
40555;SDS011;26250;45.422;11.100;2022-08-19T11:19:26;8.70;;;4.90;;
40555;SDS011;26250;45.422;11.100;2022-08-19T11:21:53;13.88;;;6.30;;
40555;SDS011;26250;45.422;11.100;2022-08-19T11:24:25;5.20;;;4.60;;
40555;SDS011;26250;45.422;11.100;2022-08-19T11:26:54;12.18;;;5.40;;
40555;SDS011;26250;45.422;11.100;2022-08-19T11:29:26;5.88;;;4.30;;
40555;SDS011;26250;45.422;11.100;2022-08-19T11:31:54;6.55;;;4.15;;
40555;SDS011;26250;45.422;11.100;2022-08-19T11:34:22;7.95;;;4.57;;
40555;SDS011;26250;45.422;11.100;2022-08-19T11:36:53;9.10;;;4.95;;
40555;SDS011;26250;45.422;11.100;2022-08-19T11:39:24;8.30;;;5.28;;
40555;SDS011;26250;45.422;11.100;2022-08-19T11:41:53;5.28;;;4.78;;
40555;SDS011;26250;45.422;11.100;2022-08-19T11:44:20;5.50;;;4.82;;
40555;SDS011;26250;45.422;11.100;2022-08-19T11:46:47;7.57;;;4.65;;
40555;SDS011;26250;45.422;11.100;2022-08-19T11:49:14;11.15;;;5.00;;
40555;SDS011;26250;45.422;11.100;2022-08-19T11:51:42;6.85;;;5.15;;
40555;SDS011;26250;45.422;11.100;2022-08-19T11:54:10;5.47;;;4.97;;
40555;SDS011;26250;45.422;11.100;2022-08-19T11:56:38;5.40;;;4.63;;
40555;SDS011;26250;45.422;11.100;2022-08-19T11:59:06;8.55;;;5.38;;
40555;SDS011;26250;45.422;11.100;2022-08-19T12:01:39;7.63;;;5.43;;
40555;SDS011;26250;45.422;11.100;2022-08-19T12:04:09;13.55;;;6.43;;
40555;SDS011;26250;45.422;11.100;2022-08-19T12:06:37;9.30;;;5.43;;
40555;SDS011;26250;45.422;11.100;2022-08-19T12:09:07;7.72;;;5.93;;
40555;SDS011;26250;45.422;11.100;2022-08-19T12:11:36;9.43;;;5.88;;
40555;SDS011;26250;45.422;11.100;2022-08-19T12:14:04;8.63;;;6.13;;
40555;SDS011;26250;45.422;11.100;2022-08-19T12:16:31;8.70;;;5.78;;
40555;SDS011;26250;45.422;11.100;2022-08-19T12:18:59;8.38;;;6.03;;
40555;SDS011;26250;45.422;11.100;2022-08-19T12:21:31;8.52;;;5.68;;
40555;SDS011;26250;45.422;11.100;2022-08-19T12:24:00;8.27;;;6.03;;
40555;SDS011;26250;45.422;11.100;2022-08-19T12:26:29;12.15;;;6.18;;
40555;SDS011;26250;45.422;11.100;2022-08-19T12:28:58;8.35;;;5.93;;
40555;SDS011;26250;45.422;11.100;2022-08-19T12:31:28;10.88;;;7.25;;
40555;SDS011;26250;45.422;11.100;2022-08-19T12:33:56;11.05;;;7.22;;
40555;SDS011;26250;45.422;11.100;2022-08-19T12:36:23;7.38;;;6.68;;
40555;SDS011;26250;45.422;11.100;2022-08-19T12:38:51;8.32;;;6.88;;
40555;SDS011;26250;45.422;11.100;2022-08-19T12:41:19;12.23;;;7.78;;
40555;SDS011;26250;45.422;11.100;2022-08-19T12:43:48;7.50;;;6.65;;
40555;SDS011;26250;45.422;11.100;2022-08-19T12:46:17;8.75;;;7.65;;
40555;SDS011;26250;45.422;11.100;2022-08-19T12:48:47;8.55;;;6.97;;
40555;SDS011;26250;45.422;11.100;2022-08-19T12:51:19;8.52;;;7.32;;
40555;SDS011;26250;45.422;11.100;2022-08-19T12:53:47;11.63;;;7.40;;
40555;SDS011;26250;45.422;11.100;2022-08-19T12:56:15;9.80;;;6.57;;
40555;SDS011;26250;45.422;11.100;2022-08-19T12:58:48;7.80;;;6.43;;
40555;SDS011;26250;45.422;11.100;2022-08-19T13:01:18;8.20;;;5.65;;
40555;SDS011;26250;45.422;11.100;2022-08-19T13:03:48;6.47;;;5.65;;
40555;SDS011;26250;45.422;11.100;2022-08-19T13:06:16;12.80;;;5.47;;
40555;SDS011;26250;45.422;11.100;2022-08-19T13:08:45;10.80;;;5.35;;
40555;SDS011;26250;45.422;11.100;2022-08-19T13:11:16;6.63;;;5.07;;
40555;SDS011;26250;45.422;11.100;2022-08-19T13:13:47;7.97;;;5.15;;
40555;SDS011;26250;45.422;11.100;2022-08-19T13:16:17;10.60;;;4.85;;
40555;SDS011;26250;45.422;11.100;2022-08-19T13:18:47;6.50;;;4.15;;
40555;SDS011;26250;45.422;11.100;2022-08-19T13:21:14;5.28;;;4.20;;
40555;SDS011;26250;45.422;11.100;2022-08-19T13:23:41;6.85;;;4.40;;
40555;SDS011;26250;45.422;11.100;2022-08-19T13:26:09;5.70;;;5.07;;
40555;SDS011;26250;45.422;11.100;2022-08-19T13:28:37;11.45;;;5.30;;
40555;SDS011;26250;45.422;11.100;2022-08-19T13:31:24;5.40;;;4.63;;
40555;SDS011;26250;45.422;11.100;2022-08-19T13:34:11;5.40;;;4.90;;
40555;SDS011;26250;45.422;11.100;2022-08-19T13:36:38;9.43;;;4.70;;
40555;SDS011;26250;45.422;11.100;2022-08-19T13:39:06;6.07;;;4.68;;
40555;SDS011;26250;45.422;11.100;2022-08-19T13:41:35;9.40;;;4.03;;
40555;SDS011;26250;45.422;11.100;2022-08-19T13:44:03;8.15;;;4.63;;
40555;SDS011;26250;45.422;11.100;2022-08-19T13:46:32;6.82;;;5.00;;
40555;SDS011;26250;45.422;11.100;2022-08-19T13:48:59;5.80;;;3.70;;
40555;SDS011;26250;45.422;11.100;2022-08-19T13:51:26;5.78;;;3.22;;
40555;SDS011;26250;45.422;11.100;2022-08-19T13:53:54;3.13;;;2.70;;
40555;SDS011;26250;45.422;11.100;2022-08-19T13:56:21;6.35;;;3.75;;
40555;SDS011;26250;45.422;11.100;2022-08-19T13:58:51;4.28;;;3.13;;
40555;SDS011;26250;45.422;11.100;2022-08-19T14:01:23;4.32;;;2.78;;
40555;SDS011;26250;45.422;11.100;2022-08-19T14:03:50;6.63;;;3.55;;
40555;SDS011;26250;45.422;11.100;2022-08-19T14:06:17;10.20;;;3.25;;
40555;SDS011;26250;45.422;11.100;2022-08-19T14:08:45;3.53;;;2.70;;
40555;SDS011;26250;45.422;11.100;2022-08-19T14:11:12;3.20;;;2.45;;
40555;SDS011;26250;45.422;11.100;2022-08-19T14:13:39;5.40;;;2.45;;
40555;SDS011;26250;45.422;11.100;2022-08-19T14:16:08;7.47;;;2.45;;
40555;SDS011;26250;45.422;11.100;2022-08-19T14:18:37;7.68;;;2.35;;
40555;SDS011;26250;45.422;11.100;2022-08-19T14:21:04;6.90;;;2.67;;
40555;SDS011;26250;45.422;11.100;2022-08-19T14:23:32;2.90;;;2.38;;
40555;SDS011;26250;45.422;11.100;2022-08-19T14:26:07;3.83;;;3.38;;
40555;SDS011;26250;45.422;11.100;2022-08-19T14:28:37;4.32;;;3.28;;
40555;SDS011;26250;45.422;11.100;2022-08-19T14:31:11;4.60;;;3.10;;
40555;SDS011;26250;45.422;11.100;2022-08-19T14:33:39;3.95;;;2.80;;
40555;SDS011;26250;45.422;11.100;2022-08-19T14:36:06;5.13;;;3.47;;
40555;SDS011;26250;45.422;11.100;2022-08-19T14:38:33;5.95;;;3.28;;
40555;SDS011;26250;45.422;11.100;2022-08-19T14:41:08;8.20;;;3.40;;
40555;SDS011;26250;45.422;11.100;2022-08-19T14:46:20;9.98;;;3.47;;
40555;SDS011;26250;45.422;11.100;2022-08-19T14:48:49;4.20;;;3.58;;
40555;SDS011;26250;45.422;11.100;2022-08-19T14:51:18;3.95;;;3.47;;
40555;SDS011;26250;45.422;11.100;2022-08-19T14:53:47;5.47;;;3.05;;
40555;SDS011;26250;45.422;11.100;2022-08-19T14:56:19;8.02;;;3.95;;
40555;SDS011;26250;45.422;11.100;2022-08-19T14:58:48;5.18;;;3.58;;
40555;SDS011;26250;45.422;11.100;2022-08-19T15:01:18;3.72;;;3.35;;
40555;SDS011;26250;45.422;11.100;2022-08-19T15:03:47;4.55;;;3.28;;
40555;SDS011;26250;45.422;11.100;2022-08-19T15:06:15;9.80;;;3.13;;
40555;SDS011;26250;45.422;11.100;2022-08-19T15:08:42;3.60;;;2.22;;
40555;SDS011;26250;45.422;11.100;2022-08-19T15:11:12;3.97;;;2.42;;
40555;SDS011;26250;45.422;11.100;2022-08-19T15:13:42;4.22;;;2.67;;